Time;durP1;ratioP1;P1;durP2;ratioP2;P2;SDS_P1;SDS_P2;PMS_P1;PMS_P2;Temp;Humidity;BMP_temperature;BMP_pressure;BME280_temperature;BME280_humidity;BME280_pressure;Samples;Min_cycle;Max_cycle;Signal;HPM_P1;HPM_P2
2022/05/01 00:00:01;;;;;;;11.20;3.90;;;12.30;99.90;;;;;;5009906;28;20443;-71
2022/05/01 00:02:27;;;;;;;8.20;3.83;;;12.30;99.90;;;;;;5003036;28;20915;-71
2022/05/01 00:04:54;;;;;;;10.00;4.63;;;12.10;99.90;;;;;;5010887;28;20432;-71
2022/05/01 00:07:21;;;;;;;3.87;3.47;;;12.10;99.90;;;;;;5004680;28;20489;-71
2022/05/01 00:09:48;;;;;;;7.80;4.43;;;12.10;99.90;;;;;;5007773;28;20975;-70
2022/05/01 00:12:14;;;;;;;8.20;3.83;;;12.10;99.90;;;;;;5004926;28;20829;-70
2022/05/01 00:14:41;;;;;;;5.77;3.40;;;12.00;99.90;;;;;;5009276;28;20515;-71
2022/05/01 00:17:15;;;;;;;5.30;3.17;;;11.90;99.90;;;;;;5003400;28;20573;-70
2022/05/01 00:19:44;;;;;;;6.00;4.63;;;11.90;99.90;;;;;;5008509;28;20485;-70
2022/05/01 00:22:11;;;;;;;4.93;3.20;;;11.90;99.90;;;;;;4999088;28;20485;-70
2022/05/01 00:24:40;;;;;;;4.70;3.73;;;11.90;99.90;;;;;;5003268;28;20471;-70
2022/05/01 00:27:07;;;;;;;6.43;4.07;;;11.80;99.90;;;;;;5009736;28;20484;-71
2022/05/01 00:29:34;;;;;;;5.17;4.50;;;11.70;99.90;;;;;;5005617;28;20460;-70
2022/05/01 00:32:04;;;;;;;6.23;3.83;;;11.70;99.90;;;;;;5007177;28;21086;-70
2022/05/01 00:37:19;;;;;;;4.43;3.97;;;11.50;99.90;;;;;;5012502;28;20996;-71
2022/05/01 00:39:46;;;;;;;5.97;3.53;;;11.30;99.90;;;;;;4999485;28;20998;-71
2022/05/01 00:42:13;;;;;;;4.80;3.00;;;11.30;99.90;;;;;;5007321;28;20484;-71
2022/05/01 00:44:40;;;;;;;5.60;4.13;;;11.30;99.90;;;;;;5004225;28;20461;-72
2022/05/01 00:47:06;;;;;;;8.77;3.97;;;11.20;99.90;;;;;;5005201;28;20479;-71
2022/05/01 00:49:35;;;;;;;7.50;3.73;;;11.10;99.90;;;;;;5002925;28;20459;-71
2022/05/01 00:52:08;;;;;;;10.80;3.70;;;11.00;99.90;;;;;;5008218;28;20458;-71
2022/05/01 00:54:40;;;;;;;8.07;4.50;;;11.00;99.90;;;;;;5006763;28;20508;-71
2022/05/01 00:57:11;;;;;;;7.03;3.93;;;10.90;99.90;;;;;;5009778;28;20459;-72
2022/05/01 00:59:38;;;;;;;7.67;4.23;;;10.80;99.90;;;;;;5005833;28;20775;-72
2022/05/01 01:02:07;;;;;;;6.43;4.80;;;10.70;99.90;;;;;;5003633;28;21008;-70
2022/05/01 01:04:35;;;;;;;9.70;3.97;;;10.70;99.90;;;;;;5008722;28;20466;-70
2022/05/01 01:07:03;;;;;;;6.27;4.20;;;10.40;99.90;;;;;;5009202;28;20480;-71
2022/05/01 01:09:30;;;;;;;6.30;4.30;;;10.10;99.90;;;;;;5004517;28;20534;-70
2022/05/01 01:14:37;;;;;;;8.13;4.40;;;10.20;99.90;;;;;;5017198;28;20525;-70
2022/05/01 01:17:05;;;;;;;5.60;3.67;;;10.20;99.90;;;;;;5018406;28;20560;-70
2022/05/01 01:19:31;;;;;;;5.60;3.97;;;10.20;99.90;;;;;;5027810;28;20464;-70
2022/05/01 01:22:01;;;;;;;6.17;4.00;;;10.10;99.90;;;;;;5017043;28;20482;-71
2022/05/01 01:24:28;;;;;;;5.20;3.70;;;10.00;99.90;;;;;;5013260;28;20466;-71
2022/05/01 01:26:56;;;;;;;10.17;4.20;;;9.90;99.90;;;;;;5008375;28;20578;-70
2022/05/01 01:32:10;;;;;;;6.53;3.90;;;9.80;99.90;;;;;;5016217;28;20425;-70
2022/05/01 01:34:39;;;;;;;7.23;3.60;;;9.70;99.90;;;;;;5012006;28;20472;-72
2022/05/01 01:37:08;;;;;;;4.60;3.03;;;9.70;99.90;;;;;;5006787;28;20511;-72
2022/05/01 01:39:35;;;;;;;5.03;3.20;;;9.70;99.90;;;;;;5014709;28;20453;-70
2022/05/01 01:42:07;;;;;;;5.23;4.10;;;9.70;99.90;;;;;;5010516;28;20479;-70
2022/05/01 01:44:37;;;;;;;8.20;4.70;;;9.70;99.90;;;;;;5015002;28;20496;-70
2022/05/01 01:47:04;;;;;;;7.70;4.53;;;9.60;99.90;;;;;;5021507;28;20566;-70
2022/05/01 01:49:31;;;;;;;5.40;3.70;;;9.70;99.90;;;;;;5011139;28;20493;-70
2022/05/01 01:51:58;;;;;;;7.27;4.60;;;9.60;99.90;;;;;;5014154;28;20943;-71
2022/05/01 01:54:26;;;;;;;9.13;5.63;;;9.60;99.90;;;;;;5014118;28;21065;-70
2022/05/01 01:56:53;;;;;;;10.50;6.43;;;9.60;99.90;;;;;;5017930;28;21581;-70
2022/05/01 01:59:22;;;;;;;5.87;3.60;;;9.40;99.90;;;;;;5004858;28;20469;-70
2022/05/01 02:01:49;;;;;;;6.17;3.43;;;9.30;99.90;;;;;;5007646;28;20458;-71
2022/05/01 02:04:15;;;;;;;7.73;4.47;;;9.20;99.90;;;;;;5010070;28;20439;-72
2022/05/01 02:06:43;;;;;;;7.40;3.50;;;8.70;99.90;;;;;;5006500;28;20498;-70
2022/05/01 02:09:09;;;;;;;5.50;4.20;;;8.50;99.90;;;;;;5012603;28;20436;-70
2022/05/01 02:11:38;;;;;;;8.70;4.77;;;8.40;99.90;;;;;;5008410;28;20559;-70
2022/05/01 02:14:06;;;;;;;5.67;4.20;;;8.20;99.90;;;;;;5011522;28;20434;-70
2022/05/01 02:16:33;;;;;;;4.80;3.80;;;8.40;99.90;;;;;;5003937;28;20484;-69
2022/05/01 02:19:00;;;;;;;10.47;4.30;;;8.60;99.90;;;;;;5003923;28;20471;-72
2022/05/01 02:21:36;;;;;;;6.10;3.77;;;8.60;99.90;;;;;;5011559;28;20479;-70
2022/05/01 02:24:07;;;;;;;6.97;4.00;;;8.70;99.90;;;;;;4998740;28;20435;-70
2022/05/01 02:26:35;;;;;;;5.10;4.10;;;8.70;99.90;;;;;;5007120;28;21094;-70
2022/05/01 02:29:05;;;;;;;5.40;3.80;;;8.60;99.90;;;;;;5002260;28;20530;-70
2022/05/01 02:31:32;;;;;;;8.33;3.73;;;8.60;99.90;;;;;;5002441;28;20884;-70
2022/05/01 02:34:00;;;;;;;9.80;5.30;;;8.60;99.90;;;;;;5002131;28;20845;-72
2022/05/01 02:36:27;;;;;;;5.03;3.80;;;8.50;99.90;;;;;;5011073;28;21106;-71
2022/05/01 02:38:54;;;;;;;8.10;6.37;;;8.50;99.90;;;;;;5006891;28;20489;-71
2022/05/01 02:41:20;;;;;;;7.40;4.83;;;8.50;99.90;;;;;;5006776;28;20519;-71
2022/05/01 02:43:47;;;;;;;9.87;4.60;;;8.50;99.90;;;;;;5005306;28;21173;-71
2022/05/01 02:46:15;;;;;;;7.17;5.17;;;8.50;99.90;;;;;;5004557;28;20480;-71
2022/05/01 02:48:42;;;;;;;10.33;3.80;;;8.40;99.90;;;;;;5011906;28;20526;-71
2022/05/01 02:51:10;;;;;;;7.60;4.33;;;8.40;99.90;;;;;;5008400;28;20440;-71
2022/05/01 02:53:37;;;;;;;5.80;3.90;;;8.40;99.90;;;;;;5005839;28;20520;-71
2022/05/01 02:56:04;;;;;;;9.90;4.27;;;8.40;99.90;;;;;;5002776;28;20516;-71
2022/05/01 02:58:31;;;;;;;9.23;4.63;;;8.40;99.90;;;;;;5006580;28;20507;-72
2022/05/01 03:00:59;;;;;;;8.40;5.60;;;8.40;99.90;;;;;;5012148;28;21373;-71
2022/05/01 03:03:27;;;;;;;25.07;5.87;;;8.40;99.90;;;;;;5009635;28;20504;-70
2022/05/01 03:05:56;;;;;;;6.10;4.60;;;8.40;99.90;;;;;;5001596;28;20489;-71
2022/05/01 03:08:23;;;;;;;13.70;4.63;;;8.30;99.90;;;;;;5003802;28;20443;-71
2022/05/01 03:10:50;;;;;;;12.07;6.60;;;8.30;99.90;;;;;;5010067;28;20905;-71
2022/05/01 03:13:18;;;;;;;9.73;6.60;;;8.20;99.90;;;;;;5012244;28;22080;-70
2022/05/01 03:15:47;;;;;;;9.53;5.93;;;8.10;99.90;;;;;;5011269;28;20491;-70
2022/05/01 03:23:46;;;;;;;8.60;5.87;;;7.90;99.90;;;;;;5005460;28;20781;-71
2022/05/01 03:26:12;;;;;;;14.03;5.37;;;7.90;99.90;;;;;;5002534;28;20675;-71
2022/05/01 03:28:39;;;;;;;6.50;4.20;;;7.90;99.90;;;;;;5011160;28;20444;-71
2022/05/01 03:31:09;;;;;;;8.20;5.87;;;7.90;99.90;;;;;;5006133;28;20461;-71
2022/05/01 03:33:36;;;;;;;7.97;5.27;;;7.90;99.90;;;;;;5037319;22;20542;-71
2022/05/01 03:36:06;;;;;;;7.80;4.27;;;7.90;99.90;;;;;;5025406;28;20430;-70
2022/05/01 03:38:34;;;;;;;11.87;7.27;;;7.80;99.90;;;;;;5028641;28;20442;-70
2022/05/01 03:41:01;;;;;;;5.37;4.40;;;7.80;99.90;;;;;;5027550;28;20509;-70
2022/05/01 03:43:28;;;;;;;6.93;5.10;;;7.70;99.90;;;;;;5014188;28;20518;-71
2022/05/01 03:45:55;;;;;;;12.03;6.93;;;7.60;99.90;;;;;;5008688;28;21004;-70
2022/05/01 03:48:21;;;;;;;10.80;4.87;;;7.70;99.90;;;;;;5003400;28;20570;-71
2022/05/01 03:50:52;;;;;;;9.10;5.53;;;7.50;99.90;;;;;;5011511;28;20508;-71
2022/05/01 03:53:20;;;;;;;8.83;5.00;;;7.40;99.90;;;;;;5005427;28;20727;-72
2022/05/01 03:55:48;;;;;;;8.87;4.70;;;7.30;99.90;;;;;;5006679;28;20494;-71
2022/05/01 03:58:15;;;;;;;7.77;5.13;;;7.40;99.90;;;;;;5003364;28;20472;-71
2022/05/01 04:00:44;;;;;;;6.13;5.07;;;7.50;99.90;;;;;;5007523;28;20431;-71
2022/05/01 04:03:11;;;;;;;6.60;4.90;;;7.50;99.90;;;;;;5006426;28;20491;-71
2022/05/01 04:05:37;;;;;;;7.70;5.23;;;7.50;99.90;;;;;;5003642;28;20507;-71
2022/05/01 04:08:05;;;;;;;6.97;4.33;;;7.50;99.90;;;;;;5003206;28;20486;-72
2022/05/01 04:10:33;;;;;;;5.07;4.13;;;7.50;99.90;;;;;;5002530;28;20526;-72
2022/05/01 04:12:59;;;;;;;7.50;5.33;;;7.50;99.90;;;;;;5009360;28;20844;-72
2022/05/01 04:15:26;;;;;;;6.90;4.90;;;7.30;99.90;;;;;;5004456;28;20452;-71
2022/05/01 04:17:53;;;;;;;6.80;4.27;;;7.20;99.90;;;;;;5009027;28;20519;-71
2022/05/01 04:20:20;;;;;;;6.33;4.87;;;7.20;99.90;;;;;;4992416;28;20442;-71
2022/05/01 04:22:48;;;;;;;9.83;4.13;;;7.10;99.90;;;;;;5003963;28;20975;-72
2022/05/01 04:25:17;;;;;;;10.47;4.90;;;7.10;99.90;;;;;;5004182;28;20431;-71
2022/05/01 04:27:46;;;;;;;8.43;6.63;;;7.10;99.90;;;;;;5009139;28;20552;-72
2022/05/01 04:30:15;;;;;;;11.00;5.20;;;7.20;99.90;;;;;;5012931;28;20995;-71
2022/05/01 04:32:53;;;;;;;9.30;5.90;;;7.20;99.90;;;;;;5004921;28;20969;-73
2022/05/01 04:35:21;;;;;;;6.83;4.77;;;7.20;99.90;;;;;;5005216;28;20442;-71
2022/05/01 04:37:48;;;;;;;5.50;4.30;;;7.20;99.90;;;;;;5000267;28;21050;-72
2022/05/01 04:40:15;;;;;;;8.53;5.00;;;7.10;99.90;;;;;;4998808;28;20951;-71
2022/05/01 04:42:42;;;;;;;5.73;4.20;;;7.20;99.90;;;;;;5007639;28;20466;-73
2022/05/01 04:45:11;;;;;;;7.00;4.63;;;7.20;99.90;;;;;;5013003;28;20467;-72
2022/05/01 04:47:37;;;;;;;4.17;3.70;;;7.30;99.90;;;;;;5012364;28;21072;-70
2022/05/01 04:50:06;;;;;;;7.37;4.90;;;7.30;99.90;;;;;;4999291;28;20615;-71
2022/05/01 04:52:36;;;;;;;6.27;4.47;;;7.40;99.90;;;;;;5007437;28;20946;-70
2022/05/01 04:55:03;;;;;;;6.40;4.73;;;7.20;99.90;;;;;;5003150;28;20794;-70
2022/05/01 04:57:30;;;;;;;7.27;4.07;;;6.90;99.90;;;;;;5004352;28;20442;-71
2022/05/01 04:59:57;;;;;;;8.63;5.80;;;6.90;99.90;;;;;;5010613;28;20459;-70
2022/05/01 05:02:24;;;;;;;8.57;5.73;;;6.90;99.90;;;;;;5004939;28;20572;-69
2022/05/01 05:04:51;;;;;;;9.13;4.23;;;7.20;99.90;;;;;;5002101;28;20483;-71
2022/05/01 05:07:19;;;;;;;7.77;4.33;;;7.20;99.90;;;;;;5000807;28;20523;-72
2022/05/01 05:09:53;;;;;;;6.70;4.63;;;7.60;99.90;;;;;;5007921;28;20897;-71
2022/05/01 05:12:22;;;;;;;5.83;4.03;;;8.10;99.90;;;;;;5011892;28;20483;-72
2022/05/01 05:14:51;;;;;;;4.87;4.20;;;8.30;99.90;;;;;;5011280;28;20581;-71
2022/05/01 05:17:18;;;;;;;5.87;5.10;;;8.40;99.90;;;;;;5003154;28;20472;-69
2022/05/01 05:19:47;;;;;;;9.77;5.70;;;8.70;99.90;;;;;;5002530;28;20962;-69
2022/05/01 05:22:14;;;;;;;6.33;4.87;;;8.40;99.90;;;;;;5005120;28;20467;-70
2022/05/01 05:24:40;;;;;;;6.57;4.07;;;8.80;99.90;;;;;;5009437;28;20439;-69
2022/05/01 05:27:08;;;;;;;10.50;6.70;;;9.10;99.90;;;;;;5004512;28;20504;-70
2022/05/01 05:29:34;;;;;;;7.30;5.33;;;9.10;99.90;;;;;;5005688;28;20460;-69
2022/05/01 05:32:01;;;;;;;9.63;5.63;;;8.70;99.90;;;;;;5002451;28;21014;-70
2022/05/01 05:34:28;;;;;;;9.60;5.87;;;8.70;99.90;;;;;;5000664;28;21731;-70
2022/05/01 05:36:56;;;;;;;13.93;5.87;;;8.80;99.90;;;;;;5006220;28;21025;-69
2022/05/01 05:39:23;;;;;;;6.80;4.10;;;8.80;99.90;;;;;;5005668;28;20534;-70
2022/05/01 05:41:49;;;;;;;12.63;5.37;;;8.50;99.90;;;;;;5008294;28;20483;-69
2022/05/01 05:44:16;;;;;;;8.30;4.70;;;8.50;99.90;;;;;;5005350;28;20520;-69
2022/05/01 05:46:43;;;;;;;6.93;5.07;;;8.60;99.90;;;;;;5004742;28;20512;-70
2022/05/01 05:49:09;;;;;;;8.37;5.60;;;8.50;99.90;;;;;;5013204;28;20464;-69
2022/05/01 05:51:36;;;;;;;7.30;4.87;;;8.50;99.90;;;;;;5003569;28;20514;-70
2022/05/01 05:54:04;;;;;;;10.63;7.90;;;8.50;99.90;;;;;;5001171;28;20447;-71
2022/05/01 05:56:31;;;;;;;9.63;5.87;;;8.90;99.90;;;;;;5000844;28;20434;-69
2022/05/01 05:58:59;;;;;;;8.07;6.10;;;9.10;99.90;;;;;;5003306;28;20506;-72
2022/05/01 06:01:25;;;;;;;10.70;5.53;;;9.30;99.90;;;;;;5009953;28;20463;-70
2022/05/01 06:03:52;;;;;;;15.70;5.80;;;8.90;99.90;;;;;;5004658;28;22083;-71
2022/05/01 06:06:19;;;;;;;8.73;6.37;;;8.90;99.90;;;;;;5011485;28;20510;-70
2022/05/01 06:08:46;;;;;;;9.97;6.10;;;9.10;99.90;;;;;;5009015;28;21028;-69
2022/05/01 06:11:14;;;;;;;10.33;4.37;;;9.40;99.90;;;;;;5008616;28;20854;-70
2022/05/01 06:13:41;;;;;;;10.53;7.07;;;9.70;99.90;;;;;;5004978;28;20497;-70
2022/05/01 06:16:07;;;;;;;8.90;5.80;;;9.90;99.90;;;;;;5005726;28;20452;-71
2022/05/01 06:18:34;;;;;;;8.20;4.90;;;10.20;99.90;;;;;;4999876;28;20464;-70
2022/05/01 06:21:01;;;;;;;8.00;5.10;;;10.40;99.90;;;;;;5005779;28;20457;-71
2022/05/01 06:23:28;;;;;;;9.30;5.53;;;10.40;99.90;;;;;;5001303;28;21250;-73
2022/05/01 06:25:55;;;;;;;8.70;5.57;;;10.30;99.90;;;;;;5013196;28;21138;-69
2022/05/01 06:28:23;;;;;;;7.30;5.10;;;10.70;99.90;;;;;;5010072;28;20971;-71
2022/05/01 06:30:52;;;;;;;7.23;4.90;;;10.90;99.90;;;;;;5008599;28;20494;-70
2022/05/01 06:33:21;;;;;;;13.07;5.90;;;11.00;99.90;;;;;;5017880;28;21417;-70
2022/05/01 06:35:49;;;;;;;8.20;5.00;;;10.80;99.90;;;;;;5011632;28;20466;-71
2022/05/01 06:38:16;;;;;;;7.70;5.30;;;11.10;99.90;;;;;;5012496;28;20973;-70
2022/05/01 06:40:44;;;;;;;10.00;5.97;;;11.00;99.90;;;;;;5010787;28;20603;-70
2022/05/01 06:43:11;;;;;;;9.43;6.20;;;11.10;99.90;;;;;;5006050;28;20500;-71
2022/05/01 06:45:39;;;;;;;5.70;3.70;;;11.20;99.90;;;;;;5000662;28;20685;-70
2022/05/01 06:48:07;;;;;;;6.87;4.47;;;11.30;99.90;;;;;;5009421;28;20461;-70
2022/05/01 06:50:34;;;;;;;6.50;4.73;;;11.50;99.90;;;;;;5008761;28;20461;-70
2022/05/01 06:53:01;;;;;;;7.27;5.00;;;11.40;99.90;;;;;;5005397;28;20898;-71
2022/05/01 06:55:28;;;;;;;6.57;4.80;;;11.60;99.90;;;;;;5004652;28;20540;-71
2022/05/01 06:57:55;;;;;;;6.60;4.70;;;11.60;99.90;;;;;;4998338;28;20500;-70
2022/05/01 07:00:22;;;;;;;12.50;3.77;;;11.80;99.90;;;;;;4997661;28;20538;-71
2022/05/01 07:02:51;;;;;;;5.70;4.37;;;11.70;99.90;;;;;;4999932;28;20612;-71
2022/05/01 07:05:19;;;;;;;6.17;4.67;;;11.70;99.90;;;;;;5010239;28;20468;-70
2022/05/01 07:07:46;;;;;;;7.43;4.43;;;12.00;99.90;;;;;;5019021;28;20557;-70
2022/05/01 07:10:13;;;;;;;5.60;4.30;;;12.20;99.90;;;;;;5012219;28;21011;-71
2022/05/01 07:12:40;;;;;;;6.47;5.23;;;12.10;99.90;;;;;;5014917;28;20484;-71
2022/05/01 07:15:08;;;;;;;7.03;4.70;;;12.00;99.90;;;;;;5011157;28;20469;-70
2022/05/01 07:17:34;;;;;;;4.97;4.57;;;12.20;99.90;;;;;;5011571;28;20977;-69
2022/05/01 07:20:03;;;;;;;8.87;6.17;;;12.30;99.90;;;;;;5008543;28;20552;-69
2022/05/01 07:22:30;;;;;;;6.30;4.40;;;12.40;99.90;;;;;;5002812;28;20481;-71
2022/05/01 07:24:57;;;;;;;7.53;5.50;;;12.50;99.90;;;;;;5013497;28;20515;-71
2022/05/01 07:27:24;;;;;;;7.53;4.70;;;12.60;99.90;;;;;;5010883;28;20461;-70
2022/05/01 07:29:51;;;;;;;5.17;3.80;;;12.70;99.90;;;;;;5007312;28;20475;-70
2022/05/01 07:32:17;;;;;;;6.37;4.63;;;12.80;99.90;;;;;;5000336;28;20529;-70
2022/05/01 07:34:44;;;;;;;5.83;4.40;;;12.80;99.90;;;;;;4995051;28;20496;-70
2022/05/01 07:37:13;;;;;;;7.67;4.57;;;12.70;99.90;;;;;;5000130;28;21735;-70
2022/05/01 07:39:40;;;;;;;10.77;6.10;;;12.60;99.90;;;;;;5010051;28;20457;-71
2022/05/01 07:42:07;;;;;;;4.70;4.17;;;12.60;99.90;;;;;;5004675;28;20530;-70
2022/05/01 07:44:34;;;;;;;8.63;5.53;;;12.80;99.90;;;;;;5006562;28;20509;-71
2022/05/01 07:47:01;;;;;;;7.20;4.67;;;12.80;99.90;;;;;;5002976;28;20466;-70
2022/05/01 07:49:27;;;;;;;9.60;5.73;;;12.70;99.90;;;;;;5013354;28;20755;-70
2022/05/01 07:51:55;;;;;;;7.57;4.90;;;12.60;99.90;;;;;;5002424;28;21112;-71
2022/05/01 07:54:22;;;;;;;6.63;4.07;;;12.70;99.90;;;;;;5002408;28;20435;-70
2022/05/01 07:56:49;;;;;;;16.30;6.00;;;12.90;99.90;;;;;;5003557;28;20883;-70
2022/05/01 07:59:16;;;;;;;6.23;4.00;;;12.90;99.90;;;;;;4998216;28;20463;-72
2022/05/01 08:01:43;;;;;;;7.00;4.50;;;12.90;99.90;;;;;;4998781;28;20538;-70
2022/05/01 08:06:54;;;;;;;9.20;5.17;;;13.40;99.90;;;;;;5007407;28;20513;-71
2022/05/01 08:09:22;;;;;;;6.10;4.13;;;13.80;99.90;;;;;;5008235;28;20467;-72
2022/05/01 08:11:49;;;;;;;11.50;5.20;;;14.20;99.90;;;;;;4998445;28;21063;-71
2022/05/01 08:14:16;;;;;;;8.30;4.80;;;14.50;99.90;;;;;;4996855;28;21187;-73
2022/05/01 08:16:43;;;;;;;4.97;4.47;;;14.70;99.90;;;;;;5000110;28;24848;-73
2022/05/01 08:21:54;;;;;;;6.20;4.60;;;15.10;99.90;;;;;;5011248;28;20526;-70
2022/05/01 08:24:22;;;;;;;10.93;6.57;;;15.50;99.90;;;;;;5002282;28;20481;-70
2022/05/01 08:26:49;;;;;;;7.03;5.30;;;15.60;99.90;;;;;;5003174;28;20456;-70
2022/05/01 08:29:16;;;;;;;4.40;3.87;;;15.60;99.90;;;;;;5004207;28;20542;-70
2022/05/01 08:31:44;;;;;;;6.57;4.10;;;15.80;99.90;;;;;;5010869;28;20461;-72
2022/05/01 08:34:11;;;;;;;6.83;4.67;;;15.70;99.90;;;;;;5009396;28;20565;-71
2022/05/01 08:36:37;;;;;;;5.30;3.73;;;15.90;99.90;;;;;;5006927;28;20461;-70
2022/05/01 08:39:04;;;;;;;6.00;4.10;;;15.90;99.90;;;;;;5004566;28;20457;-70
2022/05/01 08:41:33;;;;;;;12.37;5.90;;;16.20;99.90;;;;;;5005514;28;20459;-71
2022/05/01 08:44:01;;;;;;;7.80;6.33;;;16.10;99.90;;;;;;5011507;28;21076;-70
2022/05/01 08:46:46;;;;;;;8.23;5.30;;;15.90;99.90;;;;;;5010868;28;20472;-70
2022/05/01 08:49:17;;;;;;;8.43;5.40;;;16.30;99.90;;;;;;5005699;28;20454;-70
2022/05/01 08:51:44;;;;;;;6.33;4.63;;;15.90;99.90;;;;;;5018246;28;20833;-70
2022/05/01 08:54:12;;;;;;;7.70;4.83;;;15.70;99.90;;;;;;5013083;28;20452;-70
2022/05/01 08:56:42;;;;;;;8.50;5.03;;;16.20;99.90;;;;;;5012693;28;20461;-73
2022/05/01 08:59:10;;;;;;;5.17;4.47;;;16.80;99.90;;;;;;5012723;28;20453;-70
2022/05/01 09:01:39;;;;;;;8.97;4.17;;;16.70;99.90;;;;;;5009126;28;21193;-70
2022/05/01 09:04:06;;;;;;;5.30;3.90;;;16.60;99.90;;;;;;5013375;28;20910;-71
2022/05/01 09:06:34;;;;;;;14.53;5.67;;;16.20;99.90;;;;;;5003472;28;20468;-70
2022/05/01 09:09:05;;;;;;;7.40;4.60;;;16.10;99.90;;;;;;5007188;28;20457;-73
2022/05/01 09:14:18;;;;;;;8.13;4.90;;;16.20;99.90;;;;;;5009358;28;20631;-70
2022/05/01 09:17:09;;;;;;;10.73;7.47;;;16.50;99.90;;;;;;5009462;28;20464;-70
2022/05/01 09:19:36;;;;;;;6.50;4.53;;;16.30;99.90;;;;;;5003652;28;20466;-70
2022/05/01 09:22:04;;;;;;;8.83;4.67;;;16.60;99.90;;;;;;5009237;28;20473;-71
2022/05/01 09:24:32;;;;;;;5.90;4.43;;;16.90;99.90;;;;;;5001334;28;20490;-74
2022/05/01 09:27:00;;;;;;;6.80;4.80;;;16.30;99.90;;;;;;4994391;28;20468;-72
2022/05/01 09:29:32;;;;;;;5.33;4.63;;;16.40;99.90;;;;;;5005003;28;20950;-70
2022/05/01 09:32:00;;;;;;;5.73;4.53;;;16.60;99.90;;;;;;5012462;28;20520;-70
2022/05/01 09:34:29;;;;;;;13.30;4.50;;;16.50;99.90;;;;;;5020833;22;20588;-75
2022/05/01 09:36:57;;;;;;;7.63;5.53;;;16.60;99.90;;;;;;5018408;28;20471;-76
2022/05/01 09:39:25;;;;;;;6.27;4.40;;;16.80;99.90;;;;;;4996931;28;20469;-75
2022/05/01 09:41:53;;;;;;;7.37;5.00;;;17.10;99.90;;;;;;5009856;28;20468;-75
2022/05/01 09:44:22;;;;;;;6.33;4.20;;;17.30;99.90;;;;;;5011149;28;20484;-75
2022/05/01 09:46:51;;;;;;;5.90;4.63;;;16.80;99.90;;;;;;5017639;28;20499;-75
2022/05/01 09:49:19;;;;;;;9.60;5.97;;;17.00;99.90;;;;;;5014485;28;20457;-75
2022/05/01 09:51:53;;;;;;;9.17;5.57;;;17.30;99.90;;;;;;5003528;28;20448;-75
2022/05/01 09:54:22;;;;;;;6.53;4.93;;;17.40;99.90;;;;;;5013348;28;20480;-75
2022/05/01 09:56:51;;;;;;;5.83;4.20;;;17.40;99.90;;;;;;5003411;28;20464;-75
2022/05/01 09:59:19;;;;;;;8.77;5.13;;;17.40;99.90;;;;;;5013854;28;20460;-75
2022/05/01 10:01:57;;;;;;;6.43;5.50;;;17.50;99.90;;;;;;5011601;28;20464;-75
2022/05/01 10:04:25;;;;;;;6.53;5.70;;;17.80;99.90;;;;;;5016816;28;20479;-75
2022/05/01 10:06:53;;;;;;;6.13;5.00;;;17.70;99.90;;;;;;5013890;28;20484;-74
2022/05/01 10:09:22;;;;;;;19.20;6.17;;;17.90;99.90;;;;;;5009939;28;20457;-75
2022/05/01 10:11:52;;;;;;;5.70;4.00;;;17.90;99.90;;;;;;5013835;28;20473;-74
2022/05/01 10:14:20;;;;;;;6.70;5.10;;;17.70;99.90;;;;;;5011788;28;20493;-75
2022/05/01 10:16:46;;;;;;;6.90;5.13;;;17.70;99.90;;;;;;5013085;28;20484;-75
2022/05/01 10:19:17;;;;;;;7.30;5.00;;;17.50;99.90;;;;;;5015245;28;20465;-75
2022/05/01 10:21:47;;;;;;;6.70;4.93;;;17.50;99.90;;;;;;5010602;28;20476;-75
2022/05/01 10:24:14;;;;;;;5.67;4.83;;;17.20;99.90;;;;;;5010444;28;21064;-75
2022/05/01 10:26:47;;;;;;;16.40;6.07;;;17.20;99.90;;;;;;5008166;28;20480;-74
2022/05/01 10:29:41;;;;;;;9.93;4.60;;;17.00;99.90;;;;;;5015658;28;20458;-75
2022/05/01 10:32:28;;;;;;;8.57;5.93;;;17.30;99.90;;;;;;5006556;28;20469;-76
2022/05/01 10:35:26;;;;;;;6.57;5.70;;;17.30;99.90;;;;;;5015743;28;20575;-73
2022/05/01 10:38:16;;;;;;;5.67;4.13;;;17.30;99.90;;;;;;5018038;28;20578;-75
2022/05/01 10:40:46;;;;;;;6.73;4.87;;;17.30;99.90;;;;;;5006945;28;20629;-74
2022/05/01 10:43:25;;;;;;;12.23;5.30;;;17.40;99.90;;;;;;5012091;28;20487;-75
2022/05/01 10:45:53;;;;;;;11.23;5.00;;;17.20;99.90;;;;;;5007666;28;20477;-76
2022/05/01 10:48:33;;;;;;;9.00;3.90;;;16.90;99.90;;;;;;5012905;28;20470;-75
2022/05/01 10:51:38;;;;;;;6.37;4.23;;;16.90;99.90;;;;;;5007409;28;20473;-73
2022/05/01 10:54:35;;;;;;;5.90;4.70;;;17.00;99.90;;;;;;5009435;28;20531;-75
2022/05/01 10:57:26;;;;;;;7.20;4.60;;;17.50;99.90;;;;;;5005281;28;20848;-76
2022/05/01 11:00:05;;;;;;;8.13;5.70;;;17.80;99.90;;;;;;5008778;28;20536;-75
2022/05/01 11:02:40;;;;;;;9.67;4.43;;;18.20;99.90;;;;;;5015030;28;20526;-76
2022/05/01 11:05:10;;;;;;;6.23;4.53;;;18.50;99.90;;;;;;5009855;28;20926;-75
2022/05/01 11:07:39;;;;;;;7.43;4.47;;;18.60;99.90;;;;;;5002010;28;20555;-73
2022/05/01 11:10:10;;;;;;;9.43;6.90;;;19.10;99.90;;;;;;5014542;28;20470;-76
2022/05/01 11:12:38;;;;;;;6.27;4.10;;;19.40;99.90;;;;;;5012311;28;20981;-75
2022/05/01 11:15:07;;;;;;;7.40;5.10;;;20.20;99.90;;;;;;5022149;28;20515;-75
2022/05/01 11:17:56;;;;;;;6.00;5.10;;;19.90;99.90;;;;;;5016699;28;20557;-74
2022/05/01 11:20:29;;;;;;;9.07;5.50;;;19.60;98.60;;;;;;5011895;28;20470;-75
2022/05/01 11:22:56;;;;;;;11.70;5.17;;;19.80;99.90;;;;;;5020319;28;20489;-75
2022/05/01 11:25:33;;;;;;;5.20;4.33;;;20.00;99.60;;;;;;5018387;28;21171;-75
2022/05/01 11:28:00;;;;;;;9.43;5.80;;;19.70;99.00;;;;;;5015086;28;20544;-73
2022/05/01 11:30:37;;;;;;;7.50;5.20;;;19.40;99.10;;;;;;5016374;28;20476;-76
2022/05/01 11:33:06;;;;;;;6.90;4.80;;;19.70;97.60;;;;;;5013124;28;21129;-75
2022/05/01 11:35:55;;;;;;;13.67;4.63;;;19.00;98.10;;;;;;5016064;28;20461;-74
2022/05/01 11:38:23;;;;;;;5.10;4.03;;;19.00;97.80;;;;;;5019100;28;20462;-73
2022/05/01 11:40:56;;;;;;;7.70;5.13;;;19.00;98.40;;;;;;5018105;28;20553;-72
2022/05/01 11:43:24;;;;;;;8.33;5.73;;;19.20;98.10;;;;;;5013800;28;20881;-74
2022/05/01 11:45:50;;;;;;;7.00;4.20;;;18.90;98.50;;;;;;5002686;28;20489;-74
2022/05/01 11:48:19;;;;;;;6.07;5.00;;;18.70;97.90;;;;;;5002729;28;20489;-72
2022/05/01 11:50:48;;;;;;;5.30;4.60;;;18.80;97.50;;;;;;5006886;28;21848;-75
2022/05/01 11:53:24;;;;;;;5.37;4.03;;;19.00;98.80;;;;;;5020307;28;20493;-74
2022/05/01 12:04:32;;;;;;;5.97;4.50;;;18.70;96.90;;;;;;5000445;28;20480;-74
2022/05/01 12:07:04;;;;;;;5.10;4.60;;;19.60;97.70;;;;;;5003013;28;20464;-76
2022/05/01 12:09:37;;;;;;;6.33;5.57;;;19.30;95.50;;;;;;5002004;28;21197;-73
2022/05/01 12:12:05;;;;;;;6.17;5.17;;;19.70;96.20;;;;;;4995146;28;20465;-75
2022/05/01 12:14:33;;;;;;;5.47;4.97;;;19.40;95.00;;;;;;5000584;28;21277;-76
2022/05/01 12:17:00;;;;;;;4.93;4.13;;;19.30;94.50;;;;;;5003497;28;20457;-76
2022/05/01 12:19:36;;;;;;;9.20;5.67;;;19.10;96.00;;;;;;4999225;28;20466;-74
2022/05/01 12:22:05;;;;;;;9.07;4.90;;;18.80;95.50;;;;;;5011501;28;20465;-76
2022/05/01 12:24:33;;;;;;;5.63;4.63;;;18.80;94.80;;;;;;5012784;28;20499;-76
2022/05/01 12:27:01;;;;;;;7.40;5.07;;;19.00;95.80;;;;;;5011302;28;20466;-75
2022/05/01 12:29:28;;;;;;;7.73;5.40;;;19.20;95.80;;;;;;5011473;28;20461;-74
2022/05/01 12:32:01;;;;;;;5.93;4.40;;;19.30;94.80;;;;;;5011998;28;20453;-74
2022/05/01 12:34:29;;;;;;;7.97;6.27;;;19.20;94.20;;;;;;5006306;28;20707;-74
2022/05/01 12:36:57;;;;;;;5.27;4.77;;;18.80;94.70;;;;;;4998429;28;20909;-75
2022/05/01 12:39:24;;;;;;;8.53;5.30;;;19.10;94.50;;;;;;5004558;28;20548;-74
2022/05/01 12:45:07;;;;;;;7.20;4.77;;;19.50;94.10;;;;;;5003084;28;20491;-74
2022/05/01 12:47:37;;;;;;;8.10;5.87;;;19.50;93.00;;;;;;5001436;28;21140;-75
2022/05/01 12:50:05;;;;;;;7.13;4.77;;;19.30;93.20;;;;;;5005777;28;20477;-74
2022/05/01 12:52:32;;;;;;;9.33;6.00;;;19.10;93.10;;;;;;5002503;28;20469;-75
2022/05/01 12:55:17;;;;;;;5.73;5.13;;;18.90;94.10;;;;;;5000233;28;20508;-74
2022/05/01 12:57:50;;;;;;;8.63;5.40;;;18.80;93.70;;;;;;5019708;28;20500;-76
2022/05/01 13:00:33;;;;;;;7.23;5.97;;;18.70;92.70;;;;;;5004284;28;20472;-73
2022/05/01 13:03:15;;;;;;;6.07;5.07;;;18.70;93.00;;;;;;4998829;28;20457;-76
2022/05/01 13:05:42;;;;;;;6.90;4.93;;;18.40;94.00;;;;;;5011256;28;20574;-73
2022/05/01 13:08:20;;;;;;;8.00;5.43;;;18.30;93.90;;;;;;5006914;28;20459;-75
2022/05/01 13:11:15;;;;;;;15.47;5.90;;;18.40;94.60;;;;;;5013770;28;21371;-75
2022/05/01 13:13:56;;;;;;;8.63;5.07;;;18.60;93.40;;;;;;5017935;28;20488;-75
2022/05/01 13:16:25;;;;;;;6.93;5.13;;;19.10;93.60;;;;;;5014894;28;20457;-75
2022/05/01 13:18:57;;;;;;;6.93;5.60;;;19.60;92.60;;;;;;5008253;28;20510;-76
2022/05/01 13:21:26;;;;;;;7.80;5.90;;;20.40;92.60;;;;;;5020988;28;20469;-75
2022/05/01 13:23:56;;;;;;;5.20;4.30;;;21.00;90.70;;;;;;5027469;28;20568;-74
2022/05/01 13:26:22;;;;;;;5.93;4.90;;;21.50;90.00;;;;;;5020581;28;20904;-76
2022/05/01 13:28:49;;;;;;;6.10;5.33;;;21.20;88.00;;;;;;5018835;28;20449;-74
2022/05/01 13:31:17;;;;;;;6.93;5.87;;;20.60;88.90;;;;;;5019597;28;20458;-76